createdAt,value
2019-01-23T00:02:26.614Z,32.67
2019-01-23T00:05:08.928Z,32.70
2019-01-23T00:07:43.921Z,33.60
2019-01-23T00:10:29.035Z,30.63
2019-01-23T00:13:08.310Z,27.07
2019-01-23T00:15:47.890Z,31.77
2019-01-23T00:18:25.207Z,31.33
2019-01-23T00:20:59.208Z,30.20
2019-01-23T00:23:35.391Z,31.60
2019-01-23T00:26:15.311Z,33.23
2019-01-23T00:28:54.104Z,32.77
2019-01-23T00:31:32.344Z,32.63
2019-01-23T00:34:15.856Z,31.40
2019-01-23T00:36:50.471Z,29.80
2019-01-23T00:39:31.285Z,30.17
2019-01-23T00:42:09.639Z,32.53
2019-01-23T00:44:42.243Z,30.67
2019-01-23T00:47:21.902Z,31.87
2019-01-23T00:49:58.676Z,28.23
2019-01-23T00:52:35.262Z,29.33
2019-01-23T00:55:25.803Z,31.83
2019-01-23T00:58:02.267Z,30.97
2019-01-23T01:00:34.144Z,29.23
2019-01-23T01:03:06.209Z,31.00
2019-01-23T01:05:38.286Z,30.83
2019-01-23T01:08:18.862Z,31.67
2019-01-23T01:10:51.385Z,31.97
2019-01-23T01:13:32.448Z,27.90
2019-01-23T01:16:08.712Z,30.73
2019-01-23T01:18:45.450Z,29.17
2019-01-23T01:21:15.319Z,29.33
2019-01-23T01:23:43.016Z,28.57
2019-01-23T01:26:14.868Z,29.43
2019-01-23T01:28:55.823Z,33.97
2019-01-23T01:31:25.570Z,26.27
2019-01-23T01:34:01.499Z,29.60
2019-01-23T01:36:39.582Z,32.13
2019-01-23T01:39:16.822Z,32.03
2019-01-23T01:41:56.229Z,30.47
2019-01-23T01:44:39.250Z,31.80
2019-01-23T01:47:12.891Z,28.00
2019-01-23T01:49:57.763Z,31.67
2019-01-23T01:52:38.348Z,29.97
2019-01-23T01:55:19.201Z,31.43
2019-01-23T01:57:58.226Z,30.67
2019-01-23T02:00:31.568Z,28.03
2019-01-23T02:03:08.234Z,27.43
2019-01-23T02:05:46.687Z,27.07
2019-01-23T02:08:26.757Z,29.33
2019-01-23T02:11:16.555Z,30.67
2019-01-23T02:13:51.737Z,33.77
2019-01-23T02:16:27.810Z,26.87
2019-01-23T02:19:01.283Z,32.47
2019-01-23T02:21:33.913Z,30.40
2019-01-23T02:24:18.645Z,29.47
2019-01-23T02:26:56.157Z,32.70
2019-01-23T02:29:37.784Z,31.60
2019-01-23T02:32:14.391Z,34.57
2019-01-23T02:34:49.455Z,31.27
2019-01-23T02:37:30.608Z,29.90
2019-01-23T02:40:26.519Z,31.40
2019-01-23T02:43:00.663Z,29.30
2019-01-23T02:45:41.301Z,28.13
2019-01-23T02:48:18.766Z,30.97
2019-01-23T02:50:53.847Z,29.97
2019-01-23T02:53:34.611Z,31.20
2019-01-23T02:59:22.424Z,27.90
2019-01-23T03:02:16.285Z,27.87
2019-01-23T03:04:58.628Z,28.87
2019-01-23T03:08:07.036Z,27.83
2019-01-23T03:10:56.337Z,27.53
2019-01-23T03:13:37.920Z,27.17
2019-01-23T03:16:23.656Z,28.50
2019-01-23T03:19:04.443Z,26.73
2019-01-23T03:21:44.834Z,26.60
2019-01-23T03:24:22.526Z,28.80
2019-01-23T03:27:07.588Z,28.97
2019-01-23T03:29:48.759Z,27.40
2019-01-23T03:32:33.606Z,25.03
2019-01-23T03:35:09.521Z,29.03
2019-01-23T03:38:10.292Z,26.23
2019-01-23T03:44:22.053Z,26.87
2019-01-23T03:46:58.104Z,25.73
2019-01-23T03:49:45.625Z,29.13
2019-01-23T03:52:31.411Z,29.03
2019-01-23T03:55:21.076Z,28.80
2019-01-23T03:58:24.115Z,26.03
2019-01-23T04:01:09.525Z,29.53
2019-01-23T04:03:56.846Z,28.47
2019-01-23T04:06:49.162Z,29.43
2019-01-23T04:09:43.091Z,30.33
2019-01-23T04:12:32.495Z,30.20
2019-01-23T04:15:18.668Z,31.17
2019-01-23T04:18:05.310Z,32.50
2019-01-23T04:20:59.709Z,30.10
2019-01-23T04:23:50.386Z,31.87
2019-01-23T04:26:36.747Z,29.57
2019-01-23T04:32:37.942Z,30.87
2019-01-23T04:35:29.626Z,32.23
2019-01-23T04:38:30.033Z,32.47
2019-01-23T04:41:33.151Z,32.77
2019-01-23T04:44:16.649Z,32.33
2019-01-23T04:47:02.239Z,29.60
2019-01-23T04:49:47.200Z,32.40
2019-01-23T04:52:46.164Z,31.57
2019-01-23T04:55:29.418Z,31.60
2019-01-23T04:58:15.224Z,30.03
2019-01-23T05:00:50.284Z,30.63
2019-01-23T05:03:32.588Z,30.80
2019-01-23T05:06:31.345Z,30.50
2019-01-23T05:09:08.542Z,28.53
2019-01-23T05:12:05.583Z,29.00
2019-01-23T05:14:44.097Z,31.30
2019-01-23T05:17:33.408Z,31.40
2019-01-23T05:20:40.759Z,29.33
2019-01-23T05:23:11.289Z,31.87
2019-01-23T05:25:51.006Z,29.77
2019-01-23T05:28:35.892Z,30.17
2019-01-23T05:31:32.435Z,28.10
2019-01-23T05:34:15.856Z,30.83
2019-01-23T05:37:06.160Z,30.90
2019-01-23T05:42:45.794Z,28.23
2019-01-23T05:45:30.090Z,31.10
2019-01-23T05:48:09.499Z,33.80
2019-01-23T05:50:48.205Z,32.00
2019-01-23T05:53:28.913Z,33.30
2019-01-23T05:56:13.985Z,30.17
2019-01-23T05:58:58.708Z,31.77
2019-01-23T06:01:41.039Z,34.00
2019-01-23T06:04:19.953Z,32.37
2019-01-23T06:06:59.310Z,34.27
2019-01-23T06:09:43.040Z,33.63
2019-01-23T06:12:30.999Z,29.63
2019-01-23T06:15:11.003Z,32.43
2019-01-23T06:18:04.803Z,32.77
2019-01-23T06:20:45.089Z,32.27
2019-01-23T06:23:26.120Z,35.40
2019-01-23T06:26:08.822Z,33.87
2019-01-23T06:29:08.374Z,33.83
2019-01-23T06:31:46.494Z,32.60
2019-01-23T06:34:30.613Z,34.47
2019-01-23T06:37:17.274Z,35.10
2019-01-23T06:40:04.690Z,31.40
2019-01-23T06:43:06.097Z,32.93
2019-01-23T06:46:02.952Z,32.13
2019-01-23T06:48:47.487Z,30.63
2019-01-23T06:51:32.876Z,30.23
2019-01-23T06:54:18.978Z,34.17
2019-01-23T06:56:59.948Z,34.93
2019-01-23T06:59:59.289Z,31.10
2019-01-23T07:02:55.110Z,31.93
2019-01-23T07:05:58.360Z,29.83
2019-01-23T07:08:43.822Z,30.80
2019-01-23T07:11:34.320Z,34.83
2019-01-23T07:14:35.260Z,34.03
2019-01-23T07:17:19.255Z,33.37
2019-01-23T07:35:58.820Z,32.17
2019-01-23T07:37:29.178Z,31.70
2019-01-23T07:55:23.097Z,30.73
2019-01-23T07:58:28.255Z,34.63
2019-01-23T08:01:39.951Z,32.03
2019-01-23T08:04:48.948Z,30.30
2019-01-23T08:25:07.666Z,32.63
2019-01-23T08:36:21.097Z,30.73
2019-01-23T08:39:22.693Z,33.23
2019-01-23T08:42:36.211Z,32.30
2019-01-23T08:45:12.295Z,32.40
2019-01-23T08:48:26.002Z,35.93
2019-01-23T08:51:12.128Z,33.80
2019-01-23T08:54:31.153Z,33.83
2019-01-23T08:58:06.191Z,31.77
2019-01-23T09:01:29.324Z,36.57
2019-01-23T09:04:47.955Z,34.00
2019-01-23T09:07:58.865Z,32.50
2019-01-23T09:11:17.012Z,32.07
2019-01-23T09:14:00.840Z,37.30
2019-01-23T09:17:04.500Z,34.87
2019-01-23T09:19:55.372Z,33.40
2019-01-23T09:22:34.444Z,35.80
2019-01-23T09:25:25.927Z,35.53
2019-01-23T09:28:16.115Z,35.07
2019-01-23T09:31:08.212Z,38.03
2019-01-23T09:34:14.610Z,33.37
2019-01-23T09:37:36.718Z,35.00
2019-01-23T09:41:00.827Z,34.50
2019-01-23T09:44:12.866Z,37.47
2019-01-23T09:47:30.147Z,34.93
2019-01-23T09:50:38.678Z,36.70
2019-01-23T09:53:46.656Z,36.53
2019-01-23T09:56:22.648Z,39.40
2019-01-23T09:58:52.774Z,32.90
2019-01-23T10:01:25.550Z,38.47
2019-01-23T10:03:57.387Z,40.53
2019-01-23T10:06:34.788Z,41.43
2019-01-23T10:09:11.606Z,39.53
2019-01-23T10:11:50.570Z,37.40
2019-01-23T10:14:26.362Z,40.77
2019-01-23T10:17:12.611Z,40.07
2019-01-23T10:19:57.719Z,40.20
2019-01-23T10:22:29.386Z,42.13
2019-01-23T10:25:07.541Z,40.10
2019-01-23T10:27:49.643Z,41.80
2019-01-23T10:30:52.019Z,40.47
2019-01-23T10:33:58.207Z,43.70
2019-01-23T10:36:35.089Z,44.27
2019-01-23T10:39:06.236Z,42.77
2019-01-23T10:41:36.947Z,38.50
2019-01-23T10:44:08.105Z,41.60
2019-01-23T10:46:53.919Z,42.97
2019-01-23T10:49:21.583Z,40.60
2019-01-23T10:51:49.296Z,44.53
2019-01-23T10:54:22.829Z,42.93
2019-01-23T10:56:57.166Z,45.63
2019-01-23T10:59:27.387Z,46.70
2019-01-23T11:01:57.525Z,47.07
2019-01-23T11:04:25.125Z,47.83
2019-01-23T11:06:54.856Z,44.40
2019-01-23T11:09:22.761Z,54.93
2019-01-23T11:11:50.499Z,44.60
2019-01-23T11:14:18.333Z,59.80
2019-01-23T11:16:50.698Z,46.87
2019-01-23T11:19:23.180Z,49.90
2019-01-23T11:22:20.569Z,42.63
2019-01-23T11:24:58.356Z,48.10
2019-01-23T11:27:29.172Z,43.57
2019-01-23T11:29:59.944Z,58.63
2019-01-23T11:32:28.393Z,54.07
2019-01-23T11:34:56.095Z,47.10
2019-01-23T11:37:41.826Z,52.57
2019-01-23T11:40:29.556Z,52.07
2019-01-23T11:42:57.450Z,57.23
2019-01-23T11:45:42.511Z,47.77
2019-01-23T11:48:32.961Z,48.87
2019-01-23T11:51:15.483Z,59.80
2019-01-23T11:53:52.510Z,48.17
2019-01-23T11:56:32.135Z,51.73
2019-01-23T11:59:06.300Z,52.00
2019-01-23T12:01:38.151Z,63.33
2019-01-23T12:04:22.280Z,47.53
2019-01-23T12:06:51.480Z,55.00
2019-01-23T12:09:22.588Z,48.27
2019-01-23T12:12:19.372Z,57.67
2019-01-23T12:14:51.573Z,51.70
2019-01-23T12:17:23.324Z,48.20
2019-01-23T12:19:52.700Z,55.37
2019-01-23T12:22:20.446Z,49.70
2019-01-23T12:24:48.053Z,56.83
2019-01-23T12:27:15.663Z,51.80
2019-01-23T12:29:43.277Z,57.03
2019-01-23T12:32:41.965Z,50.73
2019-01-23T12:35:12.762Z,54.53
2019-01-23T12:37:49.886Z,49.33
2019-01-23T12:40:47.039Z,53.83
2019-01-23T12:43:23.116Z,57.50
2019-01-23T12:46:06.306Z,50.17
2019-01-23T12:51:46.440Z,57.20
2019-01-23T12:54:24.067Z,53.23
2019-01-23T12:56:58.999Z,57.83
2019-01-23T12:59:29.538Z,55.80
2019-01-23T13:01:57.242Z,60.37
2019-01-23T13:04:24.955Z,56.27
2019-01-23T13:06:54.379Z,52.13
2019-01-23T13:09:24.740Z,59.93
2019-01-23T13:11:54.248Z,47.77
2019-01-23T13:14:21.986Z,48.57
2019-01-23T13:16:55.289Z,54.53
2019-01-23T13:19:25.275Z,55.87
2019-01-23T13:21:52.991Z,53.77
2019-01-23T13:24:26.051Z,59.83
2019-01-23T13:27:12.708Z,52.83
2019-01-23T13:29:50.779Z,59.33
2019-01-23T13:32:34.520Z,59.03
2019-01-23T13:35:08.145Z,63.23
2019-01-23T13:38:15.240Z,57.73
2019-01-23T13:41:01.090Z,59.93
2019-01-23T13:43:28.816Z,60.27
2019-01-23T13:46:10.538Z,58.70
2019-01-23T13:49:03.836Z,53.87
2019-01-23T13:51:33.603Z,54.90
2019-01-23T13:54:01.844Z,55.57
2019-01-23T13:56:52.400Z,57.00
2019-01-23T13:59:20.087Z,57.07
2019-01-23T14:01:47.748Z,54.47
2019-01-23T14:04:27.234Z,60.00
2019-01-23T14:06:54.222Z,60.10
2019-01-23T14:09:24.443Z,59.60
2019-01-23T14:11:52.089Z,51.60
2019-01-23T14:14:21.637Z,52.60
2019-01-23T14:16:49.275Z,49.43
2019-01-23T14:19:16.961Z,53.63
2019-01-23T14:21:45.786Z,46.47
2019-01-23T14:24:13.389Z,57.40
2019-01-23T14:26:49.365Z,55.97
2019-01-23T14:29:19.957Z,49.87
2019-01-23T14:31:50.027Z,57.67
2019-01-23T14:34:17.813Z,50.40
2019-01-23T14:36:45.511Z,56.13
2019-01-23T14:39:17.801Z,55.47
2019-01-23T14:41:45.561Z,60.00
2019-01-23T14:44:13.211Z,53.40
2019-01-23T14:46:41.155Z,56.30
2019-01-23T14:49:08.809Z,57.53
2019-01-23T14:51:39.022Z,58.27
2019-01-23T14:54:09.253Z,57.57
2019-01-23T14:56:42.207Z,52.47
2019-01-23T14:59:09.911Z,57.17
2019-01-23T15:01:37.811Z,50.83
2019-01-23T15:04:05.456Z,54.60
2019-01-23T15:06:34.102Z,56.07
2019-01-23T15:09:01.772Z,47.67
2019-01-23T15:11:30.060Z,61.23
2019-01-23T15:13:57.794Z,61.00
2019-01-23T15:16:27.650Z,53.13
2019-01-23T15:18:58.164Z,58.67
2019-01-23T15:21:25.808Z,52.33
2019-01-23T15:23:53.672Z,58.77
2019-01-23T15:26:21.461Z,60.03
2019-01-23T15:28:49.110Z,58.37
2019-01-23T15:31:16.769Z,52.50
2019-01-23T15:33:44.472Z,57.20
2019-01-23T15:36:13.873Z,52.40
2019-01-23T15:38:41.900Z,59.33
2019-01-23T15:41:09.562Z,51.33
2019-01-23T15:43:37.220Z,58.07
2019-01-23T15:46:05.162Z,57.33
2019-01-23T15:48:32.837Z,60.33
2019-01-23T15:51:05.071Z,61.67
2019-01-23T15:53:30.103Z,51.77
2019-01-23T15:55:58.225Z,60.07
2019-01-23T15:58:45.636Z,66.90
2019-01-23T16:01:22.135Z,58.00
2019-01-23T16:03:49.829Z,65.27
2019-01-23T16:06:20.347Z,58.60
2019-01-23T16:08:48.008Z,58.43
2019-01-23T16:11:17.262Z,62.23
2019-01-23T16:13:47.242Z,59.77
2019-01-23T16:16:14.996Z,62.90
2019-01-23T16:18:42.784Z,63.73
2019-01-23T16:21:20.774Z,64.03
2019-01-23T16:23:48.511Z,64.57
2019-01-23T16:26:28.566Z,63.47
2019-01-23T16:28:59.601Z,65.90
2019-01-23T16:31:27.288Z,63.53
2019-01-23T16:33:55.110Z,67.67
2019-01-23T16:36:22.827Z,65.67
2019-01-23T16:38:50.391Z,66.53
2019-01-23T16:41:18.061Z,64.60
2019-01-23T16:43:47.970Z,69.00
2019-01-23T16:46:17.364Z,67.67
2019-01-23T16:48:45.042Z,71.43
2019-01-23T16:51:16.259Z,67.87
2019-01-23T16:53:43.947Z,64.73
2019-01-23T16:56:12.572Z,67.67
2019-01-23T16:58:41.978Z,65.07
2019-01-23T17:01:09.810Z,68.87
2019-01-23T17:03:39.111Z,73.57
2019-01-23T17:06:06.860Z,70.80
2019-01-23T17:08:47.180Z,70.37
2019-01-23T17:11:21.245Z,69.47
2019-01-23T17:13:49.534Z,69.57
2019-01-23T17:16:17.651Z,69.07
2019-01-23T17:18:45.283Z,72.07
2019-01-23T17:21:13.022Z,72.70
2019-01-23T17:23:40.608Z,74.67
2019-01-23T17:26:08.499Z,71.50
2019-01-23T17:28:41.337Z,72.73
2019-01-23T17:31:08.956Z,73.20
2019-01-23T17:33:36.685Z,73.37
2019-01-23T17:36:04.445Z,68.87
2019-01-23T17:38:32.091Z,71.23
2019-01-23T17:40:59.713Z,68.27
2019-01-23T17:43:28.315Z,70.50
2019-01-23T17:46:01.008Z,72.33
2019-01-23T17:48:33.853Z,67.80
2019-01-23T17:51:01.579Z,77.60
2019-01-23T17:53:29.272Z,78.53
2019-01-23T17:55:57.252Z,77.73
2019-01-23T17:58:26.099Z,73.43
2019-01-23T18:00:55.578Z,73.17
2019-01-23T18:03:23.554Z,76.83
2019-01-23T18:05:51.414Z,70.93
2019-01-23T18:08:25.885Z,74.87
2019-01-23T18:10:53.513Z,79.70
2019-01-23T18:13:21.402Z,71.17
2019-01-23T18:15:49.175Z,69.97
2019-01-23T18:18:24.547Z,67.50
2019-01-23T18:20:52.252Z,76.13
2019-01-23T18:23:19.924Z,76.30
2019-01-23T18:25:47.580Z,78.77
2019-01-23T18:28:15.282Z,77.10
2019-01-23T18:30:53.587Z,81.13
2019-01-23T18:33:27.476Z,80.27
2019-01-23T18:36:17.861Z,122.50
2019-01-23T18:39:08.973Z,139.73
2019-01-23T18:42:08.201Z,112.47
2019-01-23T18:45:23.861Z,99.23
2019-01-23T18:48:16.642Z,86.27
2019-01-23T18:51:10.681Z,107.60
2019-01-23T18:54:03.114Z,83.93
2019-01-23T18:56:52.391Z,75.87
2019-01-23T19:00:27.895Z,72.90
2019-01-23T19:07:18.118Z,80.00
2019-01-23T19:13:56.232Z,83.20
2019-01-23T19:17:10.699Z,90.20
2019-01-23T19:24:28.969Z,86.97
2019-01-23T19:28:01.262Z,77.67
2019-01-23T19:31:29.115Z,73.27
2019-01-23T19:35:04.025Z,78.47
2019-01-23T19:41:32.508Z,74.60
2019-01-23T19:44:40.289Z,75.17
2019-01-23T19:47:45.825Z,75.57
2019-01-23T19:51:41.983Z,84.53
2019-01-23T19:54:43.999Z,107.97
2019-01-23T20:01:34.548Z,72.00
2019-01-23T20:05:04.425Z,79.80
2019-01-23T20:20:14.865Z,76.73
2019-01-23T20:23:37.079Z,80.20
2019-01-23T20:27:07.185Z,74.33
2019-01-23T20:29:57.421Z,73.07
2019-01-23T20:41:07.650Z,70.97
2019-01-23T20:44:46.621Z,75.13
2019-01-23T21:02:31.650Z,74.10
2019-01-23T21:05:05.174Z,65.07
2019-01-23T21:07:52.198Z,72.63
2019-01-23T21:10:35.580Z,72.30
2019-01-23T21:13:17.133Z,65.90
2019-01-23T21:15:52.631Z,63.67
2019-01-23T21:18:50.097Z,67.17
2019-01-23T21:25:41.913Z,69.33
2019-01-23T21:28:21.192Z,64.73
2019-01-23T21:31:16.359Z,65.50
2019-01-23T21:33:49.249Z,64.73
2019-01-23T21:36:25.528Z,61.27
2019-01-23T21:38:55.247Z,61.90
2019-01-23T21:41:27.714Z,67.87
2019-01-23T21:43:57.452Z,64.80
2019-01-23T21:46:33.501Z,65.20
2019-01-23T21:49:09.615Z,65.57
2019-01-23T21:51:47.731Z,62.70
2019-01-23T21:54:42.216Z,63.70
2019-01-23T21:57:18.115Z,57.77
2019-01-23T21:59:52.476Z,58.57
2019-01-23T22:02:44.883Z,65.20
2019-01-23T22:05:18.094Z,65.63
2019-01-23T22:08:04.073Z,56.17
2019-01-23T22:10:38.095Z,58.87
2019-01-23T22:13:19.647Z,60.60
2019-01-23T22:15:59.301Z,60.17
2019-01-23T22:18:48.058Z,61.03
2019-01-23T22:21:24.072Z,57.47
2019-01-23T22:24:02.349Z,58.93
2019-01-23T22:26:35.301Z,54.23
2019-01-23T22:29:13.844Z,58.93
2019-01-23T22:31:43.327Z,56.50
2019-01-23T22:34:16.661Z,54.87
2019-01-23T22:36:47.099Z,58.20
2019-01-23T22:39:21.448Z,56.57
2019-01-23T22:41:55.566Z,61.73
2019-01-23T22:44:34.601Z,57.80
2019-01-23T22:47:18.840Z,52.93
2019-01-23T22:49:51.232Z,57.67
2019-01-23T22:52:22.198Z,57.30
2019-01-23T22:54:51.630Z,56.23
2019-01-23T22:57:34.958Z,58.00
2019-01-23T23:00:04.469Z,56.77
2019-01-23T23:02:36.839Z,60.03
2019-01-23T23:05:04.923Z,58.10
2019-01-23T23:07:40.962Z,59.13
2019-01-23T23:10:11.629Z,60.20
2019-01-23T23:12:42.022Z,61.60
2019-01-23T23:15:14.107Z,60.50
2019-01-23T23:17:46.592Z,58.93
2019-01-23T23:20:17.385Z,64.33
2019-01-23T23:22:50.584Z,61.63
2019-01-23T23:25:21.250Z,60.10
2019-01-23T23:28:02.786Z,62.73
2019-01-23T23:30:40.637Z,66.43
2019-01-23T23:33:13.640Z,66.37
2019-01-23T23:35:41.375Z,69.97
2019-01-23T23:38:14.430Z,65.03
2019-01-23T23:40:45.211Z,65.90
2019-01-23T23:43:23.562Z,69.27
2019-01-23T23:45:56.572Z,70.47
2019-01-23T23:48:38.614Z,71.17
2019-01-23T23:51:21.136Z,67.13
2019-01-23T23:53:49.723Z,65.73
2019-01-23T23:56:24.160Z,65.33
2019-01-23T23:58:52.190Z,66.07
